sensor_id;sensor_type;location;lat;lon;timestamp;pressure;altitude;pressure_sealevel;temperature;humidity
77879;BME280;67071;51.144;17.050;2023-04-01T00:01:25;98550.10;;;9.25;78.53
77879;BME280;67071;51.144;17.050;2023-04-01T00:04:40;98552.19;;;9.28;78.55
77879;BME280;67071;51.144;17.050;2023-04-01T00:07:58;98545.87;;;9.33;78.57
77879;BME280;67071;51.144;17.050;2023-04-01T00:11:13;98549.55;;;9.37;78.60
77879;BME280;67071;51.144;17.050;2023-04-01T00:14:29;98553.42;;;9.40;78.64
77879;BME280;67071;51.144;17.050;2023-04-01T00:17:45;98547.78;;;9.43;78.68
77879;BME280;67071;51.144;17.050;2023-04-01T00:20:59;98552.09;;;9.44;78.70
77879;BME280;67071;51.144;17.050;2023-04-01T00:24:14;98547.41;;;9.47;78.74
77879;BME280;67071;51.144;17.050;2023-04-01T00:27:35;98544.66;;;9.50;78.77
77879;BME280;67071;51.144;17.050;2023-04-01T00:30:51;98553.98;;;9.55;78.80
77879;BME280;67071;51.144;17.050;2023-04-01T00:34:08;98547.01;;;9.58;78.84
77879;BME280;67071;51.144;17.050;2023-04-01T00:37:24;98543.85;;;9.60;78.86
77879;BME280;67071;51.144;17.050;2023-04-01T00:40:42;98555.19;;;9.67;78.91
77879;BME280;67071;51.144;17.050;2023-04-01T00:47:22;98548.91;;;9.69;78.96
77879;BME280;67071;51.144;17.050;2023-04-01T00:50:41;98542.70;;;9.68;79.00
77879;BME280;67071;51.144;17.050;2023-04-01T00:54:06;98546.27;;;9.66;79.03
77879;BME280;67071;51.144;17.050;2023-04-01T00:57:34;98544.02;;;9.64;79.05
77879;BME280;67071;51.144;17.050;2023-04-01T01:00:50;98548.13;;;9.61;79.09
77879;BME280;67071;51.144;17.050;2023-04-01T01:04:22;98553.46;;;9.60;79.13
77879;BME280;67071;51.144;17.050;2023-04-01T01:26:52;98543.58;;;9.44;79.29
77879;BME280;67071;51.144;17.050;2023-04-01T01:33:43;98547.54;;;9.42;79.35
77879;BME280;67071;51.144;17.050;2023-04-01T01:37:08;98550.25;;;9.42;79.38
77879;BME280;67071;51.144;17.050;2023-04-01T01:40:29;98545.13;;;9.41;79.40
77879;BME280;67071;51.144;17.050;2023-04-01T01:43:48;98551.20;;;9.42;79.42
77879;BME280;67071;51.144;17.050;2023-04-01T01:47:05;98540.08;;;9.43;79.44
77879;BME280;67071;51.144;17.050;2023-04-01T01:50:21;98540.16;;;9.45;79.47
77879;BME280;67071;51.144;17.050;2023-04-01T01:53:41;98547.73;;;9.46;79.49
77879;BME280;67071;51.144;17.050;2023-04-01T01:57:07;98538.21;;;9.48;79.51
77879;BME280;67071;51.144;17.050;2023-04-01T02:00:26;98538.24;;;9.52;79.52
77879;BME280;67071;51.144;17.050;2023-04-01T02:03:45;98535.76;;;9.53;79.55
77879;BME280;67071;51.144;17.050;2023-04-01T02:07:02;98530.77;;;9.54;79.58
77879;BME280;67071;51.144;17.050;2023-04-01T02:10:23;98537.37;;;9.54;79.61
77879;BME280;67071;51.144;17.050;2023-04-01T02:13:44;98533.41;;;9.56;79.62
77879;BME280;67071;51.144;17.050;2023-04-01T02:17:08;98523.22;;;9.58;79.64
77879;BME280;67071;51.144;17.050;2023-04-01T02:20:24;98523.70;;;9.60;79.67
77879;BME280;67071;51.144;17.050;2023-04-01T02:23:47;98520.55;;;9.62;79.70
77879;BME280;67071;51.144;17.050;2023-04-01T02:27:01;98522.92;;;9.63;79.72
77879;BME280;67071;51.144;17.050;2023-04-01T02:30:19;98523.13;;;9.67;79.74
77879;BME280;67071;51.144;17.050;2023-04-01T02:33:38;98522.81;;;9.68;79.76
77879;BME280;67071;51.144;17.050;2023-04-01T02:37:04;98527.82;;;9.68;79.79
77879;BME280;67071;51.144;17.050;2023-04-01T02:40:20;98516.37;;;9.67;79.81
77879;BME280;67071;51.144;17.050;2023-04-01T02:43:34;98523.28;;;9.66;79.83
77879;BME280;67071;51.144;17.050;2023-04-01T02:46:52;98522.73;;;9.67;79.86
77879;BME280;67071;51.144;17.050;2023-04-01T02:50:12;98524.29;;;9.63;79.87
77879;BME280;67071;51.144;17.050;2023-04-01T02:53:28;98526.18;;;9.63;79.89
77879;BME280;67071;51.144;17.050;2023-04-01T02:56:49;98529.29;;;9.63;79.92
77879;BME280;67071;51.144;17.050;2023-04-01T03:00:11;98533.22;;;9.64;79.94
77879;BME280;67071;51.144;17.050;2023-04-01T03:03:30;98533.29;;;9.66;79.96
77879;BME280;67071;51.144;17.050;2023-04-01T03:06:49;98532.44;;;9.68;79.99
77879;BME280;67071;51.144;17.050;2023-04-01T03:10:07;98541.39;;;9.72;80.00
77879;BME280;67071;51.144;17.050;2023-04-01T03:13:27;98537.09;;;9.76;80.02
77879;BME280;67071;51.144;17.050;2023-04-01T03:16:43;98547.00;;;9.80;80.05
77879;BME280;67071;51.144;17.050;2023-04-01T03:20:05;98545.09;;;9.81;80.06
77879;BME280;67071;51.144;17.050;2023-04-01T03:23:24;98543.88;;;9.80;80.08
77879;BME280;67071;51.144;17.050;2023-04-01T03:26:40;98547.14;;;9.79;80.10
77879;BME280;67071;51.144;17.050;2023-04-01T03:29:59;98555.24;;;9.79;80.11
77879;BME280;67071;51.144;17.050;2023-04-01T03:33:36;98555.57;;;9.78;80.13
77879;BME280;67071;51.144;17.050;2023-04-01T03:36:52;98553.41;;;9.77;80.15
77879;BME280;67071;51.144;17.050;2023-04-01T03:40:10;98556.43;;;9.76;80.17
77879;BME280;67071;51.144;17.050;2023-04-01T03:43:29;98552.52;;;9.75;80.19
77879;BME280;67071;51.144;17.050;2023-04-01T03:46:45;98543.30;;;9.65;80.20
77879;BME280;67071;51.144;17.050;2023-04-01T03:50:01;98549.46;;;9.57;80.21
77879;BME280;67071;51.144;17.050;2023-04-01T03:53:17;98554.43;;;9.48;80.24
77879;BME280;67071;51.144;17.050;2023-04-01T03:56:36;98553.59;;;9.43;80.25
77879;BME280;67071;51.144;17.050;2023-04-01T03:59:53;98564.01;;;9.36;80.27
77879;BME280;67071;51.144;17.050;2023-04-01T04:03:09;98559.78;;;9.33;80.28
77879;BME280;67071;51.144;17.050;2023-04-01T04:06:27;98559.20;;;9.29;80.30
77879;BME280;67071;51.144;17.050;2023-04-01T04:09:44;98562.91;;;9.26;80.31
77879;BME280;67071;51.144;17.050;2023-04-01T04:13:00;98564.34;;;9.24;80.33
77879;BME280;67071;51.144;17.050;2023-04-01T04:16:17;98566.28;;;9.21;80.35
77879;BME280;67071;51.144;17.050;2023-04-01T04:19:36;98572.37;;;9.15;80.37
77879;BME280;67071;51.144;17.050;2023-04-01T04:22:55;98563.95;;;9.10;80.40
77879;BME280;67071;51.144;17.050;2023-04-01T04:26:13;98570.35;;;9.03;80.43
77879;BME280;67071;51.144;17.050;2023-04-01T04:29:32;98580.31;;;8.98;80.45
77879;BME280;67071;51.144;17.050;2023-04-01T04:32:50;98573.68;;;8.97;80.48
77879;BME280;67071;51.144;17.050;2023-04-01T04:36:07;98578.72;;;8.97;80.50
77879;BME280;67071;51.144;17.050;2023-04-01T04:39:29;98578.59;;;8.95;80.52
77879;BME280;67071;51.144;17.050;2023-04-01T04:42:54;98577.82;;;8.95;80.55
77879;BME280;67071;51.144;17.050;2023-04-01T04:46:10;98582.52;;;8.96;80.59
77879;BME280;67071;51.144;17.050;2023-04-01T04:49:26;98582.52;;;8.96;80.61
77879;BME280;67071;51.144;17.050;2023-04-01T04:52:42;98581.66;;;8.98;80.64
77879;BME280;67071;51.144;17.050;2023-04-01T04:55:58;98581.61;;;9.01;80.67
77879;BME280;67071;51.144;17.050;2023-04-01T04:59:14;98582.20;;;9.04;80.71
77879;BME280;67071;51.144;17.050;2023-04-01T05:02:30;98578.50;;;9.07;80.74
77879;BME280;67071;51.144;17.050;2023-04-01T05:05:56;98591.44;;;9.08;80.78
77879;BME280;67071;51.144;17.050;2023-04-01T05:09:12;98592.91;;;9.09;80.82
77879;BME280;67071;51.144;17.050;2023-04-01T05:12:28;98592.19;;;9.11;80.86
77879;BME280;67071;51.144;17.050;2023-04-01T05:15:50;98588.73;;;9.14;80.90
77879;BME280;67071;51.144;17.050;2023-04-01T05:19:06;98593.41;;;9.16;80.94
77879;BME280;67071;51.144;17.050;2023-04-01T05:22:25;98592.82;;;9.19;80.98
77879;BME280;67071;51.144;17.050;2023-04-01T05:25:49;98584.49;;;9.22;81.02
77879;BME280;67071;51.144;17.050;2023-04-01T05:29:10;98590.34;;;9.27;81.06
77879;BME280;67071;51.144;17.050;2023-04-01T05:32:26;98589.58;;;9.30;81.11
77879;BME280;67071;51.144;17.050;2023-04-01T05:35:42;98583.17;;;9.33;81.14
77879;BME280;67071;51.144;17.050;2023-04-01T05:39:01;98588.07;;;9.38;81.18
77879;BME280;67071;51.144;17.050;2023-04-01T05:42:21;98581.63;;;9.41;81.23
77879;BME280;67071;51.144;17.050;2023-04-01T05:45:37;98585.72;;;9.45;81.27
77879;BME280;67071;51.144;17.050;2023-04-01T05:48:53;98586.53;;;9.45;81.33
77879;BME280;67071;51.144;17.050;2023-04-01T05:52:13;98593.92;;;9.47;81.36
77879;BME280;67071;51.144;17.050;2023-04-01T05:55:29;98588.42;;;9.45;81.41
77879;BME280;67071;51.144;17.050;2023-04-01T05:58:51;98592.70;;;9.42;81.46
77879;BME280;67071;51.144;17.050;2023-04-01T06:02:08;98593.39;;;9.40;81.51
77879;BME280;67071;51.144;17.050;2023-04-01T06:05:29;98601.45;;;9.43;81.56
77879;BME280;67071;51.144;17.050;2023-04-01T06:08:48;98607.35;;;9.45;81.61
77879;BME280;67071;51.144;17.050;2023-04-01T06:12:34;98608.30;;;9.45;81.65
77879;BME280;67071;51.144;17.050;2023-04-01T17:32:04;99065.35;;;13.16;75.54
77879;BME280;67071;51.144;17.050;2023-04-01T20:20:25;0.00;;;0.00;0.00
77879;BME280;67071;51.144;17.050;2023-04-01T20:21:24;0.00;;;0.00;0.00
77879;BME280;67071;51.144;17.050;2023-04-01T20:40:40;0.00;;;0.00;0.00
77879;BME280;67071;51.144;17.050;2023-04-01T20:44:14;0.00;;;0.00;0.00
77879;BME280;67071;51.144;17.050;2023-04-01T20:51:32;0.00;;;0.00;0.00
77879;BME280;67071;51.144;17.050;2023-04-01T20:55:30;0.00;;;0.00;0.00
77879;BME280;67071;51.144;17.050;2023-04-01T21:11:09;0.00;;;0.00;0.00
77879;BME280;67071;51.144;17.050;2023-04-01T21:30:32;0.00;;;0.00;0.00
77879;BME280;67071;51.144;17.050;2023-04-01T21:55:52;0.00;;;0.00;0.00
77879;BME280;67071;51.144;17.050;2023-04-01T22:07:16;0.00;;;0.00;0.00
77879;BME280;67071;51.144;17.050;2023-04-01T22:10:54;0.00;;;0.00;0.00
77879;BME280;67071;51.144;17.050;2023-04-01T22:22:04;0.00;;;0.00;0.00
77879;BME280;67071;51.144;17.050;2023-04-01T22:40:47;0.00;;;0.00;0.00
77879;BME280;67071;51.144;17.050;2023-04-01T22:48:50;0.00;;;0.00;0.00
77879;BME280;67071;51.144;17.050;2023-04-01T22:52:39;0.00;;;0.00;0.00
77879;BME280;67071;51.144;17.050;2023-04-01T22:56:15;0.00;;;0.00;0.00
77879;BME280;67071;51.144;17.050;2023-04-01T23:03:27;0.00;;;0.00;0.00
77879;BME280;67071;51.144;17.050;2023-04-01T23:07:04;0.00;;;0.00;0.00
77879;BME280;67071;51.144;17.050;2023-04-01T23:10:46;0.00;;;0.00;0.00
77879;BME280;67071;51.144;17.050;2023-04-01T23:14:36;0.00;;;0.00;0.00
77879;BME280;67071;51.144;17.050;2023-04-01T23:18:30;0.00;;;0.00;0.00
77879;BME280;67071;51.144;17.050;2023-04-01T23:22:16;0.00;;;0.00;0.00
77879;BME280;67071;51.144;17.050;2023-04-01T23:29:38;0.00;;;0.00;0.00
77879;BME280;67071;51.144;17.050;2023-04-01T23:33:26;0.00;;;0.00;0.00
77879;BME280;67071;51.144;17.050;2023-04-01T23:36:55;0.00;;;0.00;0.00
77879;BME280;67071;51.144;17.050;2023-04-01T23:40:25;0.00;;;0.00;0.00
77879;BME280;67071;51.144;17.050;2023-04-01T23:47:36;0.00;;;0.00;0.00
77879;BME280;67071;51.144;17.050;2023-04-01T23:51:04;0.00;;;0.00;0.00
77879;BME280;67071;51.144;17.050;2023-04-01T23:54:48;0.00;;;0.00;0.00
77879;BME280;67071;51.144;17.050;2023-04-01T23:58:25;0.00;;;0.00;0.00
